Time;durP1;ratioP1;P1;durP2;ratioP2;P2;SDS_P1;SDS_P2;PMS_P1;PMS_P2;Temp;Humidity;BMP_temperature;BMP_pressure;BME280_temperature;BME280_humidity;BME280_pressure;Samples;Min_cycle;Max_cycle;Signal;HPM_P1;HPM_P2
2022/04/21 00:04:43;;;;;;;4.53;1.40;;;9.60;99.90;;;;;;15547720;22;20110;-81
2022/04/21 00:10:45;;;;;;;1.98;1.20;;;9.60;99.90;;;;;;15556799;22;20478;-80
2022/04/21 00:16:47;;;;;;;4.10;1.73;;;9.50;99.90;;;;;;15586548;22;20054;-82
2022/04/21 00:29:09;;;;;;;3.60;1.60;;;9.30;99.90;;;;;;15599074;22;20050;-80
2022/04/21 00:35:15;;;;;;;3.75;1.50;;;9.40;99.90;;;;;;15571296;22;20556;-81
2022/04/21 00:41:17;;;;;;;5.18;1.50;;;9.60;99.90;;;;;;15532535;22;20726;-81
2022/04/21 00:47:20;;;;;;;5.72;2.03;;;9.50;99.90;;;;;;15546976;22;20831;-81
2022/04/21 00:53:22;;;;;;;2.85;1.80;;;9.50;99.90;;;;;;15549003;22;20157;-81
2022/04/21 00:59:25;;;;;;;2.95;1.77;;;9.40;99.90;;;;;;15548664;22;20138;-80
2022/04/21 01:05:29;;;;;;;3.03;1.83;;;9.30;99.90;;;;;;15551253;22;20702;-82
2022/04/21 01:11:31;;;;;;;4.43;2.00;;;9.10;99.90;;;;;;15527685;22;20063;-80
2022/04/21 01:17:34;;;;;;;4.13;1.75;;;9.00;99.90;;;;;;15555434;22;20087;-80
2022/04/21 01:23:36;;;;;;;2.85;1.88;;;9.00;99.90;;;;;;15550882;22;20016;-81
2022/04/21 01:29:38;;;;;;;4.10;1.90;;;9.10;99.90;;;;;;15555457;22;20023;-80
2022/04/21 01:35:40;;;;;;;3.42;1.90;;;8.90;99.90;;;;;;15554978;22;20069;-81
2022/04/21 01:41:42;;;;;;;3.28;1.80;;;8.60;99.90;;;;;;15552925;22;20044;-80
2022/04/21 01:47:44;;;;;;;3.80;2.00;;;8.50;99.90;;;;;;15554625;22;20162;-81
2022/04/21 01:53:46;;;;;;;3.10;1.90;;;8.20;99.90;;;;;;15555315;22;20130;-80
2022/04/21 01:59:49;;;;;;;3.00;1.88;;;7.90;99.90;;;;;;15552641;22;20024;-79
2022/04/21 02:05:51;;;;;;;2.80;1.95;;;7.70;99.90;;;;;;15553234;22;20161;-81
2022/04/21 02:11:53;;;;;;;4.05;2.10;;;7.70;99.90;;;;;;15547595;22;20027;-80
2022/04/21 02:17:55;;;;;;;3.60;2.10;;;7.70;99.90;;;;;;15551237;22;20145;-80
2022/04/21 02:23:57;;;;;;;4.25;2.50;;;7.90;99.90;;;;;;15551748;22;20065;-81
2022/04/21 02:29:59;;;;;;;4.75;2.28;;;7.90;99.90;;;;;;15550952;22;20153;-80
2022/04/21 02:36:01;;;;;;;4.75;2.33;;;7.90;99.90;;;;;;15552531;22;20027;-80
2022/04/21 02:42:03;;;;;;;8.57;2.40;;;7.90;99.90;;;;;;15550155;22;20133;-80
2022/04/21 02:48:06;;;;;;;4.05;2.22;;;7.80;99.90;;;;;;15549753;22;20024;-80
2022/04/21 03:00:28;;;;;;;4.35;2.30;;;7.70;99.90;;;;;;15555115;22;20077;-81
2022/04/21 03:06:30;;;;;;;6.65;2.67;;;7.40;99.90;;;;;;15553583;22;20126;-81
2022/04/21 03:12:32;;;;;;;5.78;2.58;;;7.50;99.90;;;;;;15546050;22;20024;-81
2022/04/21 03:18:33;;;;;;;4.38;2.40;;;7.50;99.90;;;;;;15557062;22;20479;-81
2022/04/21 03:24:37;;;;;;;5.85;2.25;;;7.60;99.90;;;;;;15551496;22;20023;-81
2022/04/21 03:30:39;;;;;;;5.55;2.50;;;7.60;99.90;;;;;;15551295;22;20121;-82
2022/04/21 03:36:47;;;;;;;5.95;2.40;;;7.50;99.90;;;;;;15548713;22;20086;-81
2022/04/21 03:42:49;;;;;;;6.88;2.95;;;7.50;99.90;;;;;;15549467;22;20046;-80
2022/04/21 03:48:50;;;;;;;3.85;2.40;;;7.40;99.90;;;;;;15555681;22;20093;-80
2022/04/21 03:54:52;;;;;;;4.93;2.70;;;7.10;99.90;;;;;;15551155;22;20535;-81
2022/04/21 04:00:54;;;;;;;4.63;2.55;;;7.00;99.90;;;;;;15554604;22;20024;-81
2022/04/21 04:13:17;;;;;;;5.30;2.90;;;7.00;99.90;;;;;;15563226;22;20085;-81
2022/04/21 04:19:19;;;;;;;4.97;2.92;;;7.10;99.90;;;;;;15567526;22;20032;-80
2022/04/21 04:25:20;;;;;;;6.43;2.95;;;7.20;99.90;;;;;;15560102;22;20105;-81
2022/04/21 04:31:22;;;;;;;5.78;2.80;;;7.30;99.90;;;;;;15558638;22;20035;-80
2022/04/21 04:37:24;;;;;;;6.18;3.08;;;7.20;99.90;;;;;;15583692;22;20736;-79
2022/04/21 04:43:27;;;;;;;5.68;2.85;;;7.00;99.90;;;;;;15595807;22;20020;-80
2022/04/21 04:49:29;;;;;;;7.72;3.30;;;7.00;99.90;;;;;;15598748;22;20027;-81
2022/04/21 04:55:32;;;;;;;5.22;3.00;;;7.10;99.90;;;;;;15557033;22;20034;-80
2022/04/21 05:01:42;;;;;;;4.60;3.05;;;7.10;99.90;;;;;;15552283;22;20089;-80
2022/04/21 05:07:44;;;;;;;5.80;3.03;;;7.10;99.90;;;;;;15551108;22;20815;-82
2022/04/21 05:13:46;;;;;;;9.00;3.05;;;7.10;99.90;;;;;;15555151;22;20123;-81
2022/04/21 05:19:48;;;;;;;6.10;3.10;;;7.10;99.90;;;;;;15556669;22;20020;-81
2022/04/21 05:25:50;;;;;;;5.82;2.97;;;7.10;99.90;;;;;;15546170;22;20077;-81
2022/04/21 05:32:01;;;;;;;6.15;3.25;;;7.10;99.90;;;;;;15546528;22;20582;-82
2022/04/21 05:38:03;;;;;;;5.75;3.28;;;7.20;99.90;;;;;;15542905;22;20035;-80
2022/04/21 05:44:06;;;;;;;6.82;3.05;;;7.20;99.90;;;;;;15520173;22;20507;-81
2022/04/21 05:50:09;;;;;;;4.97;3.15;;;7.30;99.90;;;;;;15553534;22;20445;-81
2022/04/21 05:56:11;;;;;;;7.43;3.03;;;7.40;99.90;;;;;;15552244;22;20154;-80
2022/04/21 06:02:13;;;;;;;7.80;3.35;;;7.40;99.90;;;;;;15553045;22;20134;-79
2022/04/21 06:08:15;;;;;;;7.55;2.97;;;7.20;99.90;;;;;;15551866;22;20035;-80
2022/04/21 06:14:17;;;;;;;5.07;3.28;;;7.50;99.90;;;;;;15551155;22;20099;-80
2022/04/21 06:20:19;;;;;;;9.98;3.75;;;7.70;99.90;;;;;;15556725;22;20451;-81
2022/04/21 06:26:25;;;;;;;7.03;3.53;;;7.70;99.90;;;;;;15552809;22;20035;-80
2022/04/21 06:32:27;;;;;;;10.27;3.95;;;7.80;99.90;;;;;;15551014;22;20035;-81
2022/04/21 06:38:29;;;;;;;7.88;3.55;;;7.80;99.90;;;;;;15548253;22;20113;-81
2022/04/21 06:50:52;;;;;;;6.55;3.83;;;7.30;99.90;;;;;;15543572;22;20085;-81
2022/04/21 06:56:54;;;;;;;4.75;3.75;;;7.40;99.90;;;;;;15550871;22;20069;-80
2022/04/21 07:02:57;;;;;;;6.85;3.72;;;7.20;99.90;;;;;;15547454;22;20209;-81
2022/04/21 07:08:59;;;;;;;6.13;3.95;;;7.10;99.90;;;;;;15550675;22;20325;-80
2022/04/21 07:15:05;;;;;;;8.20;4.10;;;7.30;99.90;;;;;;15549404;22;20567;-80
2022/04/21 07:21:09;;;;;;;6.90;4.47;;;7.60;99.90;;;;;;15552403;22;20020;-81
2022/04/21 07:27:11;;;;;;;8.73;3.80;;;7.50;99.90;;;;;;15549042;22;20028;-80
2022/04/21 07:33:15;;;;;;;7.68;4.75;;;7.50;99.90;;;;;;15545879;22;20141;-81
2022/04/21 07:39:18;;;;;;;7.95;4.80;;;7.40;99.90;;;;;;15551740;22;20043;-81
2022/04/21 07:45:21;;;;;;;9.48;4.75;;;7.20;99.90;;;;;;15546800;22;20020;-82
2022/04/21 07:51:22;;;;;;;9.18;4.60;;;7.30;99.90;;;;;;15545944;22;20026;-80
2022/04/21 07:57:24;;;;;;;9.05;5.15;;;7.50;99.90;;;;;;15545269;22;20496;-82
2022/04/21 08:03:26;;;;;;;7.85;3.92;;;7.70;99.90;;;;;;15551781;22;20024;-81
2022/04/21 08:09:28;;;;;;;8.75;4.05;;;7.90;99.90;;;;;;15553930;22;20064;-82
2022/04/21 08:15:34;;;;;;;7.90;4.50;;;7.90;99.90;;;;;;15553876;22;20083;-79
2022/04/21 08:21:37;;;;;;;7.70;4.38;;;8.30;99.90;;;;;;15553582;22;20385;-80
2022/04/21 08:34:15;;;;;;;7.47;4.03;;;8.80;99.90;;;;;;15551516;22;20054;-80
2022/04/21 08:40:17;;;;;;;6.72;4.00;;;8.80;99.90;;;;;;15548175;22;20023;-82
2022/04/21 08:46:22;;;;;;;8.32;4.15;;;9.00;99.90;;;;;;15571386;22;20554;-81
2022/04/21 08:52:24;;;;;;;8.77;4.30;;;9.00;99.90;;;;;;15583074;22;20051;-81
2022/04/21 08:58:27;;;;;;;8.18;4.18;;;9.30;99.90;;;;;;15579074;22;20024;-80
2022/04/21 09:04:32;;;;;;;6.68;4.20;;;9.10;99.90;;;;;;15563810;22;20414;-81
2022/04/21 09:10:35;;;;;;;9.77;4.47;;;9.20;99.90;;;;;;15524568;22;20015;-81
2022/04/21 09:16:37;;;;;;;5.90;4.10;;;9.50;99.90;;;;;;15543176;22;20121;-81
2022/04/21 09:22:42;;;;;;;10.07;4.07;;;9.90;99.90;;;;;;15552965;22;20036;-82
2022/04/21 09:28:52;;;;;;;10.05;4.75;;;10.00;99.90;;;;;;15563935;22;20181;-80
2022/04/21 09:34:56;;;;;;;6.75;3.80;;;10.10;99.90;;;;;;15537192;22;20038;-81
2022/04/21 09:41:27;;;;;;;8.53;3.60;;;10.90;99.90;;;;;;15593935;22;20020;-82
2022/04/21 09:47:32;;;;;;;6.93;3.70;;;11.60;99.90;;;;;;15603983;22;20267;-81
2022/04/21 09:53:56;;;;;;;11.40;4.00;;;11.70;99.90;;;;;;15563886;22;20338;-81
2022/04/21 09:59:59;;;;;;;6.18;3.83;;;11.50;99.90;;;;;;15584602;22;20024;-80
2022/04/21 10:06:02;;;;;;;7.43;4.10;;;11.50;99.90;;;;;;15586680;22;20046;-80
2022/04/21 10:12:05;;;;;;;7.80;4.03;;;11.40;99.90;;;;;;15581433;22;20490;-82
2022/04/21 10:18:11;;;;;;;7.28;4.20;;;11.50;99.90;;;;;;15533008;22;20055;-80
2022/04/21 10:24:13;;;;;;;6.82;3.83;;;11.70;99.90;;;;;;15548442;22;20413;-82
2022/04/21 10:30:26;;;;;;;8.25;3.80;;;12.20;99.90;;;;;;15550238;22;20059;-82
2022/04/21 10:36:41;;;;;;;9.80;4.70;;;12.10;99.90;;;;;;15550084;22;20364;-81
2022/04/21 10:43:03;;;;;;;7.20;4.05;;;12.00;99.90;;;;;;15556301;22;20023;-81
2022/04/21 10:49:05;;;;;;;9.88;4.30;;;12.30;99.90;;;;;;15548919;22;20042;-82
2022/04/21 11:01:28;;;;;;;6.15;4.07;;;12.70;99.90;;;;;;15552712;22;20106;-81
2022/04/21 11:07:53;;;;;;;9.32;3.95;;;12.90;99.90;;;;;;15549024;22;20020;-82
2022/04/21 11:14:03;;;;;;;;;;;13.40;99.90;;;;;;15515043;22;20460;-81
2022/04/21 11:20:25;;;;;;;7.53;4.25;;;13.30;99.90;;;;;;15552101;22;19981;-81
2022/04/21 11:26:30;;;;;;;8.52;4.45;;;13.60;99.90;;;;;;15548274;22;20095;-83
2022/04/21 11:32:33;;;;;;;8.18;4.13;;;14.00;99.90;;;;;;15551388;22;20031;-81
2022/04/21 11:38:36;;;;;;;9.13;4.38;;;14.90;99.90;;;;;;15548467;22;20062;-83
2022/04/21 11:44:38;;;;;;;10.52;4.28;;;15.30;99.90;;;;;;15550185;22;20050;-83
2022/04/21 11:50:47;;;;;;;10.88;4.25;;;15.50;99.90;;;;;;15550766;22;20081;-82
2022/04/21 11:56:50;;;;;;;8.18;4.13;;;15.90;99.90;;;;;;15549578;22;20023;-83
2022/04/21 12:09:20;;;;;;;10.10;4.60;;;15.10;99.90;;;;;;15552743;22;20037;-83
2022/04/21 12:15:31;;;;;;;7.75;4.45;;;15.20;99.90;;;;;;15549375;22;20132;-81
2022/04/21 12:21:37;;;;;;;9.70;4.82;;;15.00;99.90;;;;;;15551873;22;20112;-83
2022/04/21 12:27:42;;;;;;;7.15;4.63;;;14.90;99.90;;;;;;15553044;22;20119;-84
2022/04/21 12:33:48;;;;;;;8.70;4.38;;;14.80;99.90;;;;;;15547839;22;20023;-82
2022/04/21 12:39:51;;;;;;;5.95;4.03;;;15.30;99.90;;;;;;15549690;22;20150;-81
2022/04/21 12:46:13;;;;;;;9.70;4.38;;;15.30;99.90;;;;;;15547197;22;20023;-81
2022/04/21 12:52:41;;;;;;;8.95;4.78;;;14.90;99.90;;;;;;15522484;22;20344;-81
2022/04/21 12:58:54;;;;;;;7.60;4.10;;;14.80;99.90;;;;;;15542212;22;20511;-81
2022/04/21 13:04:57;;;;;;;9.93;4.40;;;14.70;99.90;;;;;;15556393;22;20020;-84
2022/04/21 13:11:03;;;;;;;8.65;3.97;;;14.50;99.90;;;;;;15557865;22;20480;-83
2022/04/21 13:17:05;;;;;;;5.70;3.40;;;14.60;99.90;;;;;;15558649;22;20020;-81
2022/04/21 13:23:07;;;;;;;13.75;4.18;;;14.40;99.90;;;;;;15555040;22;20027;-84
2022/04/21 13:29:15;;;;;;;7.20;3.17;;;14.60;99.90;;;;;;15557482;22;20130;-82
2022/04/21 13:35:17;;;;;;;5.15;3.25;;;14.30;99.90;;;;;;15555192;22;20743;-83
2022/04/21 13:41:20;;;;;;;5.22;3.60;;;14.00;99.90;;;;;;15553604;22;20054;-83
2022/04/21 13:47:22;;;;;;;8.43;3.40;;;13.90;99.90;;;;;;15552594;22;20024;-84
2022/04/21 13:53:24;;;;;;;5.90;3.28;;;13.80;99.90;;;;;;15557587;22;20111;-82
2022/04/21 13:59:26;;;;;;;7.70;3.60;;;13.60;99.90;;;;;;15558204;22;20704;-82
2022/04/21 14:05:28;;;;;;;6.28;2.97;;;13.70;99.90;;;;;;15553022;22;20806;-83
2022/04/21 14:11:30;;;;;;;8.32;3.40;;;13.90;99.90;;;;;;15560381;22;20098;-83
2022/04/21 14:17:31;;;;;;;5.57;3.08;;;13.90;99.90;;;;;;15587616;22;20024;-81
2022/04/21 14:23:37;;;;;;;5.05;2.80;;;13.80;99.90;;;;;;15561998;22;20456;-82
2022/04/21 14:29:39;;;;;;;5.00;2.70;;;13.70;99.90;;;;;;15551395;22;20070;-81
2022/04/21 14:35:41;;;;;;;7.65;3.30;;;13.50;99.90;;;;;;15551389;22;20047;-81
2022/04/21 14:48:03;;;;;;;5.03;2.70;;;13.20;99.90;;;;;;15554132;22;20067;-82
2022/04/21 14:54:06;;;;;;;5.65;2.83;;;13.10;99.90;;;;;;15554494;22;20023;-81
2022/04/21 15:00:08;;;;;;;7.60;2.83;;;13.10;99.90;;;;;;15552046;22;20145;-81
2022/04/21 15:06:10;;;;;;;8.48;3.10;;;12.90;99.90;;;;;;15550217;22;20355;-81
2022/04/21 15:12:12;;;;;;;8.27;3.33;;;12.90;99.90;;;;;;15548604;22;20023;-84
2022/04/21 15:18:14;;;;;;;5.55;2.50;;;12.90;99.90;;;;;;15523076;22;20023;-83
2022/04/21 15:24:16;;;;;;;4.72;2.40;;;12.90;99.90;;;;;;15543116;22;20047;-81
2022/04/21 15:30:18;;;;;;;5.70;2.78;;;12.90;99.90;;;;;;15548523;22;20091;-81
2022/04/21 15:36:26;;;;;;;4.05;2.58;;;12.90;99.90;;;;;;15539688;22;20479;-83
2022/04/21 15:42:28;;;;;;;5.43;2.58;;;12.70;99.90;;;;;;15549350;22;20095;-81
2022/04/21 15:48:30;;;;;;;4.25;2.53;;;12.60;99.90;;;;;;15548967;22;20100;-83
2022/04/21 16:00:53;;;;;;;5.90;2.60;;;12.40;99.90;;;;;;15539915;22;20117;-83
2022/04/21 16:06:55;;;;;;;4.55;2.40;;;12.40;99.90;;;;;;15550659;22;20058;-81
2022/04/21 16:12:57;;;;;;;5.00;2.70;;;12.40;99.90;;;;;;15549977;22;20074;-84
2022/04/21 16:18:59;;;;;;;4.60;2.38;;;12.40;99.90;;;;;;15549286;22;20595;-81
2022/04/21 16:25:02;;;;;;;6.22;2.75;;;12.30;99.90;;;;;;15549031;22;20020;-83
2022/04/21 16:31:04;;;;;;;7.72;2.83;;;12.30;99.90;;;;;;15547701;22;20035;-82
2022/04/21 16:37:06;;;;;;;5.78;3.22;;;12.30;99.90;;;;;;15551194;22;20071;-81
2022/04/21 16:43:08;;;;;;;6.90;3.13;;;12.30;99.90;;;;;;15548059;22;20241;-84
2022/04/21 16:49:10;;;;;;;8.00;3.60;;;12.40;99.90;;;;;;15549345;22;20043;-83
2022/04/21 16:55:11;;;;;;;6.25;3.20;;;12.50;99.90;;;;;;15550229;22;20031;-81
2022/04/21 17:07:36;;;;;;;6.97;3.50;;;12.40;99.90;;;;;;15548253;22;20333;-83
2022/04/21 17:13:38;;;;;;;9.90;3.70;;;12.30;99.90;;;;;;15546440;22;20047;-83
2022/04/21 17:19:39;;;;;;;7.53;3.80;;;12.30;99.90;;;;;;15550471;22;20027;-82
2022/04/21 17:25:42;;;;;;;9.50;4.18;;;12.20;99.90;;;;;;15548041;22;20023;-81
2022/04/21 17:31:44;;;;;;;7.88;3.85;;;12.30;99.90;;;;;;15549789;22;20024;-81
2022/04/21 17:37:46;;;;;;;8.77;4.00;;;12.10;99.90;;;;;;15550760;22;20122;-83
2022/04/21 17:43:48;;;;;;;8.15;3.83;;;12.10;99.90;;;;;;15552940;22;20024;-83
2022/04/21 17:49:51;;;;;;;9.45;4.97;;;12.10;99.90;;;;;;15556010;22;20035;-83
2022/04/21 17:55:53;;;;;;;9.55;4.07;;;12.00;99.90;;;;;;15555684;22;20078;-82
2022/04/21 18:01:55;;;;;;;9.35;4.00;;;11.90;99.90;;;;;;15556630;22;20560;-83
2022/04/21 18:07:59;;;;;;;14.43;7.53;;;11.90;99.90;;;;;;15555623;22;20449;-81
2022/04/21 18:14:01;;;;;;;11.37;4.47;;;11.90;99.90;;;;;;15548602;22;20054;-82
2022/04/21 18:20:03;;;;;;;7.90;4.05;;;11.80;99.90;;;;;;15557904;22;20367;-81
2022/04/21 18:26:05;;;;;;;5.88;3.22;;;11.80;99.90;;;;;;15558078;22;20027;-81
2022/04/21 18:32:07;;;;;;;7.95;3.75;;;11.70;99.90;;;;;;15561136;22;20023;-81
2022/04/21 18:38:09;;;;;;;6.85;3.80;;;11.60;99.90;;;;;;15572104;22;20047;-83
2022/04/21 18:44:12;;;;;;;8.02;3.92;;;11.50;99.90;;;;;;15591395;22;20046;-81
2022/04/21 18:50:14;;;;;;;6.38;3.60;;;11.50;99.90;;;;;;15553037;22;20035;-81
2022/04/21 18:56:17;;;;;;;9.45;3.70;;;11.40;99.90;;;;;;15573068;22;20382;-82
2022/04/21 19:02:19;;;;;;;6.38;3.67;;;11.30;99.90;;;;;;15582889;22;20034;-84
2022/04/21 19:10:00;;;;;;;5.55;3.55;;;11.40;99.90;;;;;;15595231;22;20031;-83
2022/04/21 19:14:51;;;;;;;7.25;3.75;;;11.30;99.90;;;;;;15585053;22;20031;-81
2022/04/21 19:20:53;;;;;;;7.35;4.22;;;11.30;99.90;;;;;;15574199;22;20407;-81
2022/04/21 19:26:56;;;;;;;7.82;3.90;;;11.30;99.90;;;;;;15555628;22;20496;-81
2022/04/21 19:32:58;;;;;;;9.15;4.15;;;11.30;99.90;;;;;;15559421;22;20051;-81
2022/04/21 19:39:00;;;;;;;7.93;4.35;;;11.20;99.90;;;;;;15551204;22;20024;-81
2022/04/21 19:45:03;;;;;;;6.75;4.03;;;11.20;99.90;;;;;;15551180;22;20023;-81
2022/04/21 19:51:05;;;;;;;7.80;4.45;;;11.20;99.90;;;;;;15559627;22;20145;-81
2022/04/21 19:57:06;;;;;;;8.27;4.35;;;11.10;99.90;;;;;;15596437;22;20023;-82
2022/04/21 20:03:08;;;;;;;8.88;4.20;;;11.10;99.90;;;;;;15587561;22;20027;-83
2022/04/21 20:09:10;;;;;;;7.10;4.07;;;11.10;99.90;;;;;;15557882;22;20150;-83
2022/04/21 20:15:12;;;;;;;7.90;4.22;;;11.10;99.90;;;;;;15550233;22;20077;-83
2022/04/21 20:27:38;;;;;;;8.30;4.63;;;11.10;99.90;;;;;;15535758;22;20030;-83
2022/04/21 20:33:40;;;;;;;8.65;4.72;;;11.00;99.90;;;;;;15547720;22;20652;-83
2022/04/21 20:39:44;;;;;;;7.63;4.60;;;11.00;99.90;;;;;;15551556;22;20166;-83
2022/04/21 20:45:46;;;;;;;7.80;4.50;;;10.90;99.90;;;;;;15557259;22;20446;-81
2022/04/21 20:51:48;;;;;;;7.93;4.70;;;11.00;99.90;;;;;;15550240;22;20026;-81
2022/04/21 20:57:50;;;;;;;8.30;5.03;;;10.90;99.90;;;;;;15550806;22;20042;-83
2022/04/21 21:03:53;;;;;;;8.50;5.68;;;10.90;99.90;;;;;;15547001;22;20024;-82
2022/04/21 21:09:55;;;;;;;11.30;5.80;;;11.00;99.90;;;;;;15548967;22;20027;-82
2022/04/21 21:15:57;;;;;;;10.35;5.90;;;10.90;99.90;;;;;;15554587;22;20055;-81
2022/04/21 21:21:58;;;;;;;9.98;5.50;;;10.90;99.90;;;;;;15554851;22;20130;-81
2022/04/21 21:28:01;;;;;;;13.20;6.40;;;10.80;99.90;;;;;;15557109;22;20034;-82
2022/04/21 21:34:03;;;;;;;12.38;5.90;;;10.90;99.90;;;;;;15553275;22;20036;-84
2022/04/21 21:40:06;;;;;;;8.43;5.32;;;11.00;99.90;;;;;;15554903;22;20053;-81
2022/04/21 21:46:08;;;;;;;11.40;6.10;;;10.80;99.90;;;;;;15517129;22;20047;-83
2022/04/21 21:58:30;;;;;;;13.10;6.85;;;10.80;99.90;;;;;;15552731;22;20106;-81
2022/04/21 22:04:32;;;;;;;13.18;7.70;;;10.70;99.90;;;;;;15550708;22;20076;-83
2022/04/21 22:10:34;;;;;;;15.25;8.88;;;10.80;99.90;;;;;;15554669;22;20027;-82
2022/04/21 22:16:36;;;;;;;16.58;10.05;;;10.60;99.90;;;;;;15554023;22;20527;-80
2022/04/21 22:22:38;;;;;;;12.25;9.18;;;10.70;99.90;;;;;;15552823;22;20039;-82
2022/04/21 22:28:40;;;;;;;14.90;9.05;;;10.60;99.90;;;;;;15557132;22;20141;-81
2022/04/21 22:34:42;;;;;;;15.48;9.45;;;10.60;99.90;;;;;;15555437;22;20512;-83
2022/04/21 22:40:44;;;;;;;11.68;6.82;;;10.60;99.90;;;;;;15555029;22;20074;-83
2022/04/21 22:46:46;;;;;;;10.73;6.68;;;10.60;99.90;;;;;;15559790;22;20028;-82
2022/04/21 22:52:48;;;;;;;11.02;6.78;;;10.60;99.90;;;;;;15597880;22;20031;-82
2022/04/21 22:58:50;;;;;;;11.25;6.85;;;10.50;99.90;;;;;;15593198;22;20024;-83
2022/04/21 23:04:52;;;;;;;10.43;7.18;;;10.50;99.90;;;;;;15559025;22;20528;-83
2022/04/21 23:17:15;;;;;;;14.93;8.25;;;10.30;99.90;;;;;;15552451;22;20035;-81
2022/04/21 23:23:18;;;;;;;16.35;9.05;;;10.30;99.90;;;;;;15522340;22;20177;-81
2022/04/21 23:29:20;;;;;;;11.38;8.95;;;10.30;99.90;;;;;;15555360;22;20563;-83
2022/04/21 23:35:21;;;;;;;14.25;9.98;;;10.30;99.90;;;;;;15551248;22;20023;-81
2022/04/21 23:41:23;;;;;;;14.77;9.23;;;10.20;99.90;;;;;;15550621;22;20488;-81
2022/04/21 23:47:26;;;;;;;15.40;9.32;;;10.30;99.90;;;;;;15549076;22;20028;-81
2022/04/21 23:53:28;;;;;;;15.10;10.45;;;10.20;99.90;;;;;;15548483;22;20781;-83
2022/04/21 23:59:29;;;;;;;14.10;10.05;;;10.20;99.90;;;;;;15551162;22;20499;-81
